Time;durP1;ratioP1;P1;durP2;ratioP2;P2;SDS_P1;SDS_P2;PMS_P1;PMS_P2;Temp;Humidity;BMP_temperature;BMP_pressure;BME280_temperature;BME280_humidity;BME280_pressure;Samples;Min_cycle;Max_cycle;Signal;HPM_P1;HPM_P2
2023/08/16 00:01:57;;;;;;;;;;;20.80;83.20;;;;;;5008745;28;19914;-84
2023/08/16 00:04:23;;;;;;;;;;;20.90;83.60;;;;;;5011602;28;19914;-83
2023/08/16 00:06:49;;;;;;;;;;;20.80;83.90;;;;;;5008408;28;19990;-83
2023/08/16 00:09:16;;;;;;;;;;;20.80;83.80;;;;;;5010001;28;19917;-84
2023/08/16 00:11:41;;;;;;;;;;;20.80;83.10;;;;;;5011839;28;20440;-84
2023/08/16 00:14:06;;;;;;;;;;;20.80;82.90;;;;;;5009393;28;19947;-84
2023/08/16 00:16:32;;;;;;;;;;;20.80;83.30;;;;;;5006847;28;20554;-84
2023/08/16 00:18:58;;;;;;;;;;;20.80;83.00;;;;;;5008363;28;20008;-84
2023/08/16 00:21:24;;;;;;;;;;;20.80;83.20;;;;;;5010853;28;19926;-83
2023/08/16 00:23:49;;;;;;;;;;;20.70;83.60;;;;;;5011348;28;19929;-83
2023/08/16 00:26:15;;;;;;;;;;;20.80;83.20;;;;;;5009746;28;19910;-84
2023/08/16 00:28:41;;;;;;;;;;;20.80;82.90;;;;;;5010911;28;19914;-83
2023/08/16 00:31:07;;;;;;;;;;;20.80;82.30;;;;;;5010031;28;19997;-83
2023/08/16 00:33:33;;;;;;;;;;;20.70;82.90;;;;;;5009263;28;19953;-85
2023/08/16 00:35:58;;;;;;;;;;;20.70;83.60;;;;;;5009825;28;19917;-86
2023/08/16 00:38:24;;;;;;;;;;;20.60;83.70;;;;;;5011049;28;19910;-87
2023/08/16 00:40:49;;;;;;;;;;;20.70;83.70;;;;;;5009598;28;19914;-86
2023/08/16 00:43:15;;;;;;;;;;;20.60;84.00;;;;;;5007630;28;19997;-86
2023/08/16 00:45:41;;;;;;;;;;;20.60;84.00;;;;;;5007523;28;20000;-87
2023/08/16 00:48:07;;;;;;;;;;;20.70;83.80;;;;;;5009574;28;19914;-86
2023/08/16 00:50:32;;;;;;;;;;;20.70;83.00;;;;;;5008917;28;19909;-86
2023/08/16 00:52:58;;;;;;;;;;;20.60;83.30;;;;;;5008793;28;20385;-86
2023/08/16 00:55:23;;;;;;;;;;;20.60;83.60;;;;;;5010108;28;19917;-86
2023/08/16 00:57:49;;;;;;;;;;;20.60;83.20;;;;;;5009203;28;19918;-87
2023/08/16 01:00:14;;;;;;;;;;;20.60;83.40;;;;;;5010913;28;19917;-87
2023/08/16 01:02:40;;;;;;;;;;;20.50;83.20;;;;;;5009074;28;19913;-86
2023/08/16 01:05:06;;;;;;;;;;;20.50;83.30;;;;;;5008459;28;19918;-87
2023/08/16 01:07:31;;;;;;;;;;;20.50;83.70;;;;;;5008007;28;19944;-87
2023/08/16 01:09:56;;;;;;;;;;;20.30;83.60;;;;;;5013404;28;20361;-85
2023/08/16 01:12:34;;;;;;;;;;;20.50;83.40;;;;;;5013936;28;20347;-87
2023/08/16 01:15:06;;;;;;;;;;;20.30;83.30;;;;;;5009109;28;19914;-87
2023/08/16 01:17:32;;;;;;;;;;;20.30;83.40;;;;;;5013345;28;19918;-86
2023/08/16 01:20:00;;;;;;;;;;;20.20;84.00;;;;;;5014033;28;19917;-86
2023/08/16 01:22:37;;;;;;;;;;;20.20;84.20;;;;;;5012653;28;19960;-86
2023/08/16 01:25:11;;;;;;;;;;;20.20;84.70;;;;;;5014240;28;20004;-87
2023/08/16 01:27:37;;;;;;;;;;;20.10;85.00;;;;;;5013154;28;20296;-87
2023/08/16 01:30:04;;;;;;;;;;;20.10;84.70;;;;;;5010110;28;19913;-88
2023/08/16 01:32:31;;;;;;;;;;;20.10;84.20;;;;;;5012689;28;19925;-86
2023/08/16 01:34:57;;;;;;;;;;;20.10;84.30;;;;;;5011196;28;19917;-87
2023/08/16 01:37:22;;;;;;;;;;;20.00;84.60;;;;;;5012918;28;19910;-86
2023/08/16 01:39:49;;;;;;;;;;;20.00;84.70;;;;;;5013847;28;19926;-86
2023/08/16 01:42:17;;;;;;;;;;;20.20;83.20;;;;;;5013224;28;20035;-87
2023/08/16 01:44:47;;;;;;;;;;;20.10;83.70;;;;;;5012607;28;19999;-87
2023/08/16 01:47:13;;;;;;;;;;;19.90;84.20;;;;;;5010383;28;20028;-87
2023/08/16 01:49:40;;;;;;;;;;;19.90;84.70;;;;;;5011556;28;19917;-86
2023/08/16 01:52:06;;;;;;;;;;;19.80;84.80;;;;;;5012073;28;19968;-86
2023/08/16 01:54:32;;;;;;;;;;;19.80;84.60;;;;;;5013470;28;19921;-84
2023/08/16 01:56:57;;;;;;;;;;;19.80;85.10;;;;;;5014037;28;19910;-86
2023/08/16 01:59:22;;;;;;;;;;;19.70;84.60;;;;;;5013811;28;20373;-86
2023/08/16 02:01:48;;;;;;;;;;;19.70;84.40;;;;;;5010244;28;19983;-86
2023/08/16 02:04:13;;;;;;;;;;;19.60;84.80;;;;;;5012343;28;19909;-86
2023/08/16 02:06:39;;;;;;;;;;;19.80;84.00;;;;;;5024577;23;19981;-87
2023/08/16 02:09:04;;;;;;;;;;;19.80;83.30;;;;;;4992285;28;19918;-87
2023/08/16 02:11:30;;;;;;;;;;;19.60;84.20;;;;;;4991244;28;19918;-88
2023/08/16 02:13:57;;;;;;;;;;;19.60;84.40;;;;;;4983055;28;19918;-87
2023/08/16 02:16:23;;;;;;;;;;;19.70;83.70;;;;;;4992500;28;19909;-88
2023/08/16 02:18:48;;;;;;;;;;;19.60;84.20;;;;;;4989177;28;20072;-88
2023/08/16 02:21:14;;;;;;;;;;;19.60;84.20;;;;;;4996967;28;19926;-88
2023/08/16 02:23:39;;;;;;;;;;;19.60;84.10;;;;;;4983459;28;20014;-88
2023/08/16 02:26:05;;;;;;;;;;;19.50;84.40;;;;;;4983839;28;19933;-88
2023/08/16 02:28:30;;;;;;;;;;;19.50;84.10;;;;;;4987593;28;19913;-88
2023/08/16 02:31:06;;;;;;;;;;;19.40;84.70;;;;;;4995213;28;19920;-87
2023/08/16 02:33:32;;;;;;;;;;;19.40;85.30;;;;;;4998036;28;19965;-87
2023/08/16 02:35:57;;;;;;;;;;;19.30;85.60;;;;;;4975286;28;19917;-87
2023/08/16 02:38:23;;;;;;;;;;;19.20;85.60;;;;;;4989917;28;19950;-88
2023/08/16 02:40:48;;;;;;;;;;;19.30;85.70;;;;;;4997151;28;19941;-87
2023/08/16 02:43:14;;;;;;;;;;;19.20;85.80;;;;;;4995529;28;19921;-86
2023/08/16 02:45:39;;;;;;;;;;;19.20;85.80;;;;;;4994575;28;19914;-87
2023/08/16 02:48:05;;;;;;;;;;;19.20;85.40;;;;;;4994700;28;19997;-87
2023/08/16 02:50:30;;;;;;;;;;;19.20;85.60;;;;;;4983565;28;19918;-86
2023/08/16 02:52:56;;;;;;;;;;;19.20;85.50;;;;;;4983470;28;19910;-87
2023/08/16 02:55:21;;;;;;;;;;;19.20;85.80;;;;;;4974967;28;19910;-88
2023/08/16 02:57:47;;;;;;;;;;;19.20;86.00;;;;;;4989622;28;19910;-88
2023/08/16 03:00:13;;;;;;;;;;;19.20;85.90;;;;;;4982731;28;20450;-88
2023/08/16 03:02:38;;;;;;;;;;;19.20;85.90;;;;;;4983131;28;19913;-88
2023/08/16 03:05:04;;;;;;;;;;;19.10;85.80;;;;;;4993026;28;20368;-88
2023/08/16 03:07:29;;;;;;;;;;;19.10;85.90;;;;;;4989688;28;19964;-87
2023/08/16 03:09:55;;;;;;;;;;;19.10;86.10;;;;;;4988253;28;19914;-87
2023/08/16 03:12:20;;;;;;;;;;;19.10;86.20;;;;;;4992324;28;20360;-88
2023/08/16 03:14:45;;;;;;;;;;;19.10;86.10;;;;;;4980207;28;20391;-88
2023/08/16 03:17:11;;;;;;;;;;;19.10;86.10;;;;;;4984682;28;20257;-88
2023/08/16 03:19:36;;;;;;;;;;;19.00;86.40;;;;;;4987895;28;20277;-88
2023/08/16 03:22:02;;;;;;;;;;;19.00;86.30;;;;;;4985896;28;20409;-88
2023/08/16 03:24:28;;;;;;;;;;;19.00;86.20;;;;;;4978053;28;19917;-88
2023/08/16 03:26:53;;;;;;;;;;;19.00;86.40;;;;;;4993360;28;19914;-88
2023/08/16 03:29:19;;;;;;;;;;;19.00;86.40;;;;;;4993523;28;20000;-88
2023/08/16 03:31:44;;;;;;;;;;;19.00;86.10;;;;;;4991805;28;19909;-88
2023/08/16 03:34:10;;;;;;;;;;;19.00;85.80;;;;;;4982537;28;19918;-87
2023/08/16 03:36:36;;;;;;;;;;;19.00;86.00;;;;;;4984899;28;19997;-87
2023/08/16 03:39:05;;;;;;;;;;;19.00;86.10;;;;;;4991397;28;19917;-87
2023/08/16 03:41:31;;;;;;;;;;;18.90;86.50;;;;;;4992793;28;19961;-87
2023/08/16 03:43:56;;;;;;;;;;;19.00;86.30;;;;;;4992550;28;19910;-87
2023/08/16 03:46:21;;;;;;;;;;;19.00;86.00;;;;;;4991337;28;20405;-88
2023/08/16 03:48:47;;;;;;;;;;;19.00;86.10;;;;;;4984223;28;19973;-88
2023/08/16 03:51:12;;;;;;;;;;;18.90;86.40;;;;;;4987588;28;19914;-88
2023/08/16 03:53:38;;;;;;;;;;;19.00;86.20;;;;;;4981983;28;20009;-88
2023/08/16 03:56:03;;;;;;;;;;;18.90;86.20;;;;;;4984605;28;20371;-88
2023/08/16 03:58:29;;;;;;;;;;;19.00;86.40;;;;;;4985085;28;19910;-88
2023/08/16 04:00:54;;;;;;;;;;;19.00;86.20;;;;;;4992673;28;19918;-88
2023/08/16 04:03:20;;;;;;;;;;;19.00;86.30;;;;;;4988470;28;20008;-87
2023/08/16 04:05:45;;;;;;;;;;;19.00;86.30;;;;;;4976610;28;19910;-88
2023/08/16 04:08:11;;;;;;;;;;;19.00;86.10;;;;;;4989134;28;19943;-88
2023/08/16 04:10:37;;;;;;;;;;;19.00;86.20;;;;;;4993109;28;20008;-88
2023/08/16 04:13:02;;;;;;;;;;;19.00;86.40;;;;;;4998425;28;19909;-89
2023/08/16 04:15:28;;;;;;;;;;;18.90;86.60;;;;;;4993119;28;19909;-88
2023/08/16 04:17:54;;;;;;;;;;;19.00;86.60;;;;;;4982969;28;19965;-88
2023/08/16 04:20:19;;;;;;;;;;;19.00;86.70;;;;;;4982810;28;19914;-88
2023/08/16 04:22:45;;;;;;;;;;;18.90;86.50;;;;;;4985095;28;19910;-89
2023/08/16 04:25:10;;;;;;;;;;;19.00;87.00;;;;;;4988040;28;19910;-87
2023/08/16 04:27:36;;;;;;;;;;;19.00;87.00;;;;;;4988414;28;19917;-88
2023/08/16 04:30:01;;;;;;;;;;;19.10;87.00;;;;;;4979452;28;20379;-88
2023/08/16 04:32:27;;;;;;;;;;;19.10;86.60;;;;;;4988827;28;19953;-88
2023/08/16 04:34:52;;;;;;;;;;;19.10;86.40;;;;;;4992216;28;19910;-88
2023/08/16 04:37:18;;;;;;;;;;;19.10;86.50;;;;;;4987450;28;20451;-88
2023/08/16 04:39:44;;;;;;;;;;;19.10;86.60;;;;;;4990233;28;19922;-88
2023/08/16 04:42:09;;;;;;;;;;;19.10;86.50;;;;;;4990787;28;19910;-88
2023/08/16 04:44:35;;;;;;;;;;;19.20;86.40;;;;;;4992926;28;19914;-88
2023/08/16 04:47:00;;;;;;;;;;;19.20;86.10;;;;;;4996028;28;19910;-88
2023/08/16 04:49:27;;;;;;;;;;;19.20;86.30;;;;;;4995852;28;20004;-89
2023/08/16 04:51:53;;;;;;;;;;;19.20;86.20;;;;;;4995915;28;19993;-88
2023/08/16 04:54:19;;;;;;;;;;;19.30;86.40;;;;;;4993761;28;19948;-88
2023/08/16 04:56:44;;;;;;;;;;;19.30;85.90;;;;;;4995104;28;19913;-88
2023/08/16 04:59:10;;;;;;;;;;;19.30;85.80;;;;;;4993120;28;19972;-89
2023/08/16 05:01:36;;;;;;;;;;;19.30;86.10;;;;;;4979840;28;19921;-88
2023/08/16 05:04:03;;;;;;;;;;;19.40;86.10;;;;;;4991038;28;19937;-87
2023/08/16 05:06:29;;;;;;;;;;;19.40;86.20;;;;;;4992048;28;20384;-88
2023/08/16 05:08:55;;;;;;;;;;;19.50;86.00;;;;;;4989428;28;20418;-85
2023/08/16 05:11:20;;;;;;;;;;;19.50;85.80;;;;;;4987525;28;19922;-86
2023/08/16 05:13:46;;;;;;;;;;;19.50;85.60;;;;;;4993784;28;19917;-87
2023/08/16 05:16:11;;;;;;;;;;;19.50;85.50;;;;;;4979991;28;20303;-87
2023/08/16 05:18:37;;;;;;;;;;;19.50;85.50;;;;;;4981929;28;20325;-88
2023/08/16 05:21:03;;;;;;;;;;;19.40;85.80;;;;;;4982813;28;19917;-87
2023/08/16 05:23:29;;;;;;;;;;;19.40;85.90;;;;;;4993274;28;19977;-87
2023/08/16 05:25:54;;;;;;;;;;;19.40;86.30;;;;;;4994949;28;19918;-87
2023/08/16 05:28:20;;;;;;;;;;;19.30;86.80;;;;;;4993521;28;20280;-88
2023/08/16 05:30:45;;;;;;;;;;;19.30;86.80;;;;;;4988128;28;20371;-89
2023/08/16 05:33:13;;;;;;;;;;;19.40;86.70;;;;;;4992080;28;19913;-86
2023/08/16 05:35:39;;;;;;;;;;;19.40;87.00;;;;;;5013108;28;19953;-88
2023/08/16 05:38:21;;;;;;;;;;;19.30;87.10;;;;;;4983693;28;20315;-88
2023/08/16 05:40:47;;;;;;;;;;;19.30;87.20;;;;;;4981371;28;19918;-86
2023/08/16 05:43:12;;;;;;;;;;;19.50;87.20;;;;;;4995256;28;20009;-87
2023/08/16 05:45:38;;;;;;;;;;;19.50;86.80;;;;;;4995226;28;19976;-87
2023/08/16 05:48:03;;;;;;;;;;;19.70;86.10;;;;;;4990198;28;19949;-87
2023/08/16 05:50:29;;;;;;;;;;;19.80;85.10;;;;;;4994502;28;19917;-87
2023/08/16 05:52:54;;;;;;;;;;;19.80;84.90;;;;;;4996624;28;19910;-89
2023/08/16 05:55:20;;;;;;;;;;;19.80;85.20;;;;;;4998856;28;19996;-87
2023/08/16 05:57:45;;;;;;;;;;;19.80;84.70;;;;;;4997342;28;20008;-86
2023/08/16 06:00:11;;;;;;;;;;;19.90;84.70;;;;;;4997665;28;19913;-84
2023/08/16 06:02:36;;;;;;;;;;;19.90;84.80;;;;;;4993340;28;20332;-84
2023/08/16 06:05:02;;;;;;;;;;;19.90;84.10;;;;;;4988583;28;20288;-84
2023/08/16 06:07:28;;;;;;;;;;;20.10;83.00;;;;;;4989506;28;20012;-84
2023/08/16 06:09:54;;;;;;;;;;;20.00;82.90;;;;;;4998597;28;19957;-83
2023/08/16 06:12:19;;;;;;;;;;;19.90;83.40;;;;;;4981562;28;20376;-84
2023/08/16 06:14:45;;;;;;;;;;;19.80;83.10;;;;;;4982270;28;20000;-84
2023/08/16 06:17:11;;;;;;;;;;;19.60;84.20;;;;;;4992257;28;19910;-85
2023/08/16 06:19:36;;;;;;;;;;;19.60;84.60;;;;;;4986337;28;19910;-84
2023/08/16 06:22:02;;;;;;;;;;;19.60;84.60;;;;;;4976134;28;19910;-85
2023/08/16 06:24:29;;;;;;;;;;;19.50;84.70;;;;;;4975247;28;19964;-84
2023/08/16 06:26:55;;;;;;;;;;;19.60;84.60;;;;;;4988342;28;19910;-85
2023/08/16 06:29:20;;;;;;;;;;;19.50;85.20;;;;;;4994168;28;19909;-84
2023/08/16 06:31:48;;;;;;;;;;;19.50;85.40;;;;;;4982442;28;19917;-83
2023/08/16 06:34:13;;;;;;;;;;;19.30;85.40;;;;;;4982904;28;20291;-83
2023/08/16 06:36:39;;;;;;;;;;;19.30;85.80;;;;;;4979256;28;19916;-83
2023/08/16 06:39:04;;;;;;;;;;;19.30;86.00;;;;;;4980870;28;20400;-83
2023/08/16 06:41:30;;;;;;;;;;;19.30;85.30;;;;;;4987513;28;20013;-83
2023/08/16 06:43:55;;;;;;;;;;;19.30;85.60;;;;;;4978458;28;20415;-82
2023/08/16 06:46:21;;;;;;;;;;;19.40;85.60;;;;;;4976231;28;20005;-84
2023/08/16 06:48:47;;;;;;;;;;;19.40;85.60;;;;;;4981932;28;20395;-85
2023/08/16 06:51:13;;;;;;;;;;;19.50;85.80;;;;;;4989572;28;19910;-84
2023/08/16 06:53:40;;;;;;;;;;;19.60;85.20;;;;;;4993552;28;19933;-85
2023/08/16 06:56:06;;;;;;;;;;;19.60;84.80;;;;;;4996486;28;19918;-84
2023/08/16 06:58:31;;;;;;;;;;;19.80;84.30;;;;;;4980174;28;19933;-84
2023/08/16 07:00:56;;;;;;;;;;;19.80;84.70;;;;;;4989746;28;19959;-84
2023/08/16 07:03:22;;;;;;;;;;;19.80;84.60;;;;;;4994586;28;20013;-85
2023/08/16 07:05:47;;;;;;;;;;;19.90;84.40;;;;;;4983945;28;19910;-84
2023/08/16 07:08:13;;;;;;;;;;;20.00;84.20;;;;;;4989593;28;19922;-84
2023/08/16 07:10:39;;;;;;;;;;;20.10;84.30;;;;;;4991168;28;19914;-84
2023/08/16 07:13:04;;;;;;;;;;;20.20;83.20;;;;;;4984320;28;19914;-85
2023/08/16 07:15:30;;;;;;;;;;;20.20;82.90;;;;;;4993566;28;19914;-83
2023/08/16 07:17:55;;;;;;;;;;;20.20;82.80;;;;;;4984939;28;19910;-83
2023/08/16 07:20:21;;;;;;;;;;;20.10;83.10;;;;;;4984680;28;19914;-84
2023/08/16 07:22:46;;;;;;;;;;;20.00;83.50;;;;;;4997084;28;20496;-86
2023/08/16 07:25:12;;;;;;;;;;;20.20;83.50;;;;;;4994582;28;20361;-84
2023/08/16 07:27:37;;;;;;;;;;;20.30;83.70;;;;;;4975856;28;19917;-84
2023/08/16 07:30:04;;;;;;;;;;;20.30;82.80;;;;;;4976365;28;19916;-84
2023/08/16 07:32:30;;;;;;;;;;;20.40;82.00;;;;;;4983625;28;20390;-85
2023/08/16 07:34:55;;;;;;;;;;;20.40;82.60;;;;;;4986057;28;19918;-84
2023/08/16 07:37:21;;;;;;;;;;;20.40;83.10;;;;;;4982544;28;19953;-84
2023/08/16 07:39:46;;;;;;;;;;;20.50;82.70;;;;;;4990201;28;19914;-84
2023/08/16 07:42:12;;;;;;;;;;;20.40;83.20;;;;;;4978873;28;20004;-84
2023/08/16 07:44:37;;;;;;;;;;;20.50;82.50;;;;;;4982046;28;19910;-84
2023/08/16 07:47:03;;;;;;;;;;;20.50;82.30;;;;;;4980246;28;19913;-85
2023/08/16 07:49:29;;;;;;;;;;;20.40;82.60;;;;;;4978119;28;19972;-84
2023/08/16 07:51:57;;;;;;;;;;;20.30;82.60;;;;;;4979620;28;19914;-83
2023/08/16 07:54:23;;;;;;;;;;;20.30;82.60;;;;;;4979076;28;19920;-83
2023/08/16 07:56:49;;;;;;;;;;;20.40;82.00;;;;;;4985606;28;19921;-85
2023/08/16 07:59:15;;;;;;;;;;;20.50;81.60;;;;;;4990889;28;19917;-84
2023/08/16 08:01:40;;;;;;;;;;;20.50;81.90;;;;;;4995350;28;19914;-84
2023/08/16 08:04:06;;;;;;;;;;;20.60;81.60;;;;;;4982130;28;19960;-84
2023/08/16 08:06:32;;;;;;;;;;;20.50;81.20;;;;;;4986254;28;19914;-84
2023/08/16 08:08:57;;;;;;;;;;;20.60;80.70;;;;;;5007259;23;20372;-83
2023/08/16 08:11:22;;;;;;;;;;;20.60;80.20;;;;;;4973967;28;20265;-85
2023/08/16 08:13:48;;;;;;;;;;;20.60;80.30;;;;;;4982710;28;19918;-86
2023/08/16 08:16:13;;;;;;;;;;;20.60;80.70;;;;;;4995447;28;19921;-83
2023/08/16 08:18:39;;;;;;;;;;;20.80;79.90;;;;;;4979989;28;20014;-86
2023/08/16 08:21:04;;;;;;;;;;;20.80;80.10;;;;;;4974729;28;19922;-85
2023/08/16 08:23:30;;;;;;;;;;;20.80;80.30;;;;;;4990772;28;20007;-85
2023/08/16 08:25:55;;;;;;;;;;;20.80;80.70;;;;;;4973715;28;19968;-86
2023/08/16 08:28:22;;;;;;;;;;;20.90;80.50;;;;;;4991069;28;19989;-86
2023/08/16 08:30:48;;;;;;;;;;;21.00;79.70;;;;;;4977144;28;19911;-85
2023/08/16 08:33:14;;;;;;;;;;;21.00;80.40;;;;;;4979541;28;19941;-82
2023/08/16 08:35:40;;;;;;;;;;;20.90;79.80;;;;;;4978120;28;19937;-82
2023/08/16 08:38:05;;;;;;;;;;;21.00;80.10;;;;;;4980083;28;19969;-83
2023/08/16 08:40:31;;;;;;;;;;;21.10;79.30;;;;;;4981361;28;20303;-84
2023/08/16 08:42:58;;;;;;;;;;;21.20;79.10;;;;;;4981153;28;20478;-82
2023/08/16 08:45:24;;;;;;;;;;;21.20;78.70;;;;;;4988892;28;19914;-80
2023/08/16 08:47:50;;;;;;;;;;;21.20;79.10;;;;;;4998273;28;19898;-82
2023/08/16 08:50:15;;;;;;;;;;;21.10;79.80;;;;;;4988350;28;19941;-83
2023/08/16 08:52:42;;;;;;;;;;;21.20;79.70;;;;;;4988814;28;19914;-82
2023/08/16 08:55:08;;;;;;;;;;;21.10;79.60;;;;;;4980729;28;19946;-82
2023/08/16 08:57:34;;;;;;;;;;;21.00;80.40;;;;;;4974645;28;20384;-81
2023/08/16 09:00:00;;;;;;;;;;;21.10;80.10;;;;;;4978428;28;19925;-83
2023/08/16 09:02:29;;;;;;;;;;;21.20;79.50;;;;;;4974740;28;19914;-83
2023/08/16 09:04:56;;;;;;;;;;;21.00;80.70;;;;;;4990199;28;20006;-84
2023/08/16 09:07:22;;;;;;;;;;;20.90;81.00;;;;;;4983112;28;19961;-85
2023/08/16 09:09:49;;;;;;;;;;;20.90;81.00;;;;;;4993551;28;19902;-84
2023/08/16 09:12:14;;;;;;;;;;;20.90;81.80;;;;;;4995881;28;19929;-85
2023/08/16 09:14:40;;;;;;;;;;;20.90;81.80;;;;;;4989746;28;19911;-82
2023/08/16 09:17:06;;;;;;;;;;;21.00;81.40;;;;;;4984266;28;19939;-83
2023/08/16 09:19:31;;;;;;;;;;;20.80;82.00;;;;;;4980173;28;20340;-84
2023/08/16 09:21:56;;;;;;;;;;;20.70;82.00;;;;;;4973996;28;19973;-83
2023/08/16 09:24:23;;;;;;;;;;;20.60;82.40;;;;;;4974838;28;19914;-84
2023/08/16 09:26:49;;;;;;;;;;;20.60;82.70;;;;;;4990959;28;19914;-84
2023/08/16 09:29:17;;;;;;;;;;;20.70;82.80;;;;;;4996206;28;19958;-83
2023/08/16 09:31:43;;;;;;;;;;;20.90;82.20;;;;;;4977267;28;20320;-84
2023/08/16 09:34:09;;;;;;;;;;;21.00;82.00;;;;;;4981346;28;19910;-84
2023/08/16 09:36:35;;;;;;;;;;;20.90;82.30;;;;;;4975812;28;20273;-84
2023/08/16 09:39:09;;;;;;;;;;;21.00;82.40;;;;;;4975135;28;19914;-83
2023/08/16 09:41:36;;;;;;;;;;;21.00;82.10;;;;;;4979512;28;19918;-84
2023/08/16 09:44:05;;;;;;;;;;;20.90;81.80;;;;;;4981555;28;19921;-84
2023/08/16 09:46:31;;;;;;;;;;;20.90;82.00;;;;;;4980579;28;20272;-84
2023/08/16 09:49:01;;;;;;;;;;;20.80;82.30;;;;;;4983545;28;20295;-84
2023/08/16 09:51:27;;;;;;;;;;;20.90;82.00;;;;;;4984180;28;19914;-84
2023/08/16 09:53:53;;;;;;;;;;;21.00;81.80;;;;;;4998313;28;20392;-84
2023/08/16 09:56:20;;;;;;;;;;;21.00;81.90;;;;;;4980349;28;19921;-84
2023/08/16 09:58:46;;;;;;;;;;;21.10;82.30;;;;;;4976276;28;19981;-83
2023/08/16 10:01:12;;;;;;;;;;;21.10;82.30;;;;;;4984328;28;19960;-84
2023/08/16 10:03:37;;;;;;;;;;;21.10;82.00;;;;;;4985608;28;19961;-84
2023/08/16 10:06:03;;;;;;;;;;;21.10;81.60;;;;;;4982387;28;20293;-84
2023/08/16 10:08:30;;;;;;;;;;;21.00;81.40;;;;;;4982053;28;19918;-84
2023/08/16 10:10:57;;;;;;;;;;;21.10;81.10;;;;;;4985753;28;19918;-83
2023/08/16 10:13:23;;;;;;;;;;;21.30;81.10;;;;;;4985779;28;19910;-83
2023/08/16 10:15:50;;;;;;;;;;;21.20;80.90;;;;;;4986864;28;20371;-83
2023/08/16 10:18:17;;;;;;;;;;;21.10;81.30;;;;;;4983636;28;19917;-83
2023/08/16 10:20:44;;;;;;;;;;;21.00;81.20;;;;;;4984082;28;19941;-83
2023/08/16 10:23:11;;;;;;;;;;;21.00;81.20;;;;;;4984040;28;19978;-83
2023/08/16 10:25:46;;;;;;;;;;;21.00;81.50;;;;;;4985706;28;20299;-83
2023/08/16 10:28:14;;;;;;;;;;;21.10;81.00;;;;;;5000341;28;19914;-84
2023/08/16 10:30:40;;;;;;;;;;;21.10;81.30;;;;;;4998541;28;20300;-84
2023/08/16 10:33:17;;;;;;;;;;;21.30;80.20;;;;;;4982628;28;19937;-84
2023/08/16 10:35:43;;;;;;;;;;;21.20;80.90;;;;;;4998238;28;19933;-85
2023/08/16 10:38:09;;;;;;;;;;;21.20;81.00;;;;;;4979115;28;19914;-84
2023/08/16 10:40:34;;;;;;;;;;;21.20;81.20;;;;;;4993032;28;19914;-84
2023/08/16 10:43:04;;;;;;;;;;;21.20;80.80;;;;;;4975848;28;20266;-83
2023/08/16 10:45:34;;;;;;;;;;;21.20;80.60;;;;;;4989747;28;20281;-84
2023/08/16 10:48:15;;;;;;;;;;;21.10;80.80;;;;;;4976058;28;19972;-84
2023/08/16 10:50:41;;;;;;;;;;;21.10;80.70;;;;;;4976034;28;19918;-84
2023/08/16 10:53:07;;;;;;;;;;;21.10;80.90;;;;;;4975227;28;19929;-84
2023/08/16 10:55:33;;;;;;;;;;;21.10;80.90;;;;;;4975741;28;19910;-84
2023/08/16 10:57:58;;;;;;;;;;;21.10;81.40;;;;;;4990595;28;19937;-85
2023/08/16 11:00:33;;;;;;;;;;;21.20;81.30;;;;;;4977911;28;20299;-85
2023/08/16 11:03:00;;;;;;;;;;;21.30;80.80;;;;;;4999690;28;19914;-85
2023/08/16 11:05:28;;;;;;;;;;;21.40;80.80;;;;;;4993345;28;19915;-86
2023/08/16 11:07:54;;;;;;;;;;;21.50;79.90;;;;;;4975978;28;19922;-85
2023/08/16 11:10:20;;;;;;;;;;;21.50;80.00;;;;;;4982837;28;19917;-86
2023/08/16 11:12:46;;;;;;;;;;;21.50;79.20;;;;;;4978415;28;20363;-86
2023/08/16 11:15:16;;;;;;;;;;;21.70;78.60;;;;;;4977035;28;19911;-85
2023/08/16 11:17:42;;;;;;;;;;;21.60;79.20;;;;;;4980431;28;20392;-86
2023/08/16 11:20:09;;;;;;;;;;;21.80;78.10;;;;;;4976661;28;19958;-85
2023/08/16 11:22:35;;;;;;;;;;;21.80;78.40;;;;;;4993973;28;19934;-86
2023/08/16 11:25:01;;;;;;;;;;;22.10;77.00;;;;;;4978324;28;19910;-86
2023/08/16 11:27:26;;;;;;;;;;;22.20;77.30;;;;;;4977524;28;19917;-85
2023/08/16 11:29:54;;;;;;;;;;;22.30;76.60;;;;;;4977280;28;19911;-85
2023/08/16 11:32:38;;;;;;;;;;;22.40;76.00;;;;;;4977700;28;19960;-85
2023/08/16 11:35:04;;;;;;;;;;;22.40;76.20;;;;;;4970043;28;19918;-85
2023/08/16 11:37:30;;;;;;;;;;;22.50;75.70;;;;;;4992043;28;19910;-85
2023/08/16 11:40:07;;;;;;;;;;;22.50;76.40;;;;;;4976330;28;19914;-85
2023/08/16 11:42:33;;;;;;;;;;;22.40;76.00;;;;;;4976139;28;19994;-85
2023/08/16 11:44:58;;;;;;;;;;;22.50;76.00;;;;;;4980259;28;19962;-86
2023/08/16 11:47:24;;;;;;;;;;;22.50;75.70;;;;;;4991805;28;19973;-87
2023/08/16 11:49:49;;;;;;;;;;;22.70;76.00;;;;;;4975153;28;20399;-86
2023/08/16 11:52:24;;;;;;;;;;;22.80;75.70;;;;;;4976687;28;19918;-86
2023/08/16 11:55:00;;;;;;;;;;;22.80;75.60;;;;;;4970040;28;19969;-86
2023/08/16 11:57:26;;;;;;;;;;;22.80;74.30;;;;;;4993339;28;19917;-85
2023/08/16 11:59:57;;;;;;;;;;;22.80;74.20;;;;;;4977274;28;20008;-85
2023/08/16 12:02:24;;;;;;;;;;;22.80;74.50;;;;;;4975553;28;20411;-85
2023/08/16 12:04:50;;;;;;;;;;;22.70;75.20;;;;;;4977689;28;19922;-85
2023/08/16 12:07:16;;;;;;;;;;;22.70;76.00;;;;;;4976585;28;19921;-86
2023/08/16 12:09:41;;;;;;;;;;;22.80;74.90;;;;;;4977106;28;20013;-86
2023/08/16 12:12:08;;;;;;;;;;;22.80;75.00;;;;;;4976495;28;19910;-85
2023/08/16 12:14:33;;;;;;;;;;;22.80;75.40;;;;;;4977034;28;19956;-85
2023/08/16 12:16:59;;;;;;;;;;;22.60;74.30;;;;;;4984043;28;19910;-85
2023/08/16 12:19:25;;;;;;;;;;;22.60;74.90;;;;;;4996697;28;19922;-88
2023/08/16 12:21:52;;;;;;;;;;;22.60;74.80;;;;;;4994917;28;19914;-87
2023/08/16 12:24:17;;;;;;;;;;;22.60;74.50;;;;;;5004433;28;19982;-86
2023/08/16 12:26:43;;;;;;;;;;;22.60;74.30;;;;;;4988811;28;20038;-85
2023/08/16 12:29:09;;;;;;;;;;;22.60;74.90;;;;;;4974578;28;20434;-86
2023/08/16 12:31:34;;;;;;;;;;;22.60;75.60;;;;;;4974961;28;20008;-86
2023/08/16 12:34:00;;;;;;;;;;;22.90;76.20;;;;;;4974999;28;19965;-86
2023/08/16 12:36:25;;;;;;;;;;;23.00;75.90;;;;;;4974426;28;19914;-86
2023/08/16 12:38:50;;;;;;;;;;;23.30;73.80;;;;;;4974178;28;19917;-86
2023/08/16 12:41:16;;;;;;;;;;;23.20;74.50;;;;;;4975495;28;19919;-86
2023/08/16 12:43:42;;;;;;;;;;;23.20;74.00;;;;;;4974672;28;19910;-86
2023/08/16 12:46:07;;;;;;;;;;;23.20;74.30;;;;;;4976074;28;19917;-86
2023/08/16 12:48:33;;;;;;;;;;;23.10;72.90;;;;;;4991238;28;19910;-86
2023/08/16 12:50:59;;;;;;;;;;;23.10;74.10;;;;;;5001541;28;19898;-86
2023/08/16 12:53:24;;;;;;;;;;;23.20;73.70;;;;;;4973768;28;19938;-86
2023/08/16 12:55:50;;;;;;;;;;;23.30;73.30;;;;;;4973917;28;19917;-86
2023/08/16 12:58:15;;;;;;;;;;;23.20;73.20;;;;;;4974905;28;20288;-86
2023/08/16 13:00:40;;;;;;;;;;;23.30;72.60;;;;;;4973762;28;19919;-86
2023/08/16 13:03:06;;;;;;;;;;;23.50;72.40;;;;;;4973763;28;19915;-86
2023/08/16 13:05:32;;;;;;;;;;;23.60;72.10;;;;;;4991528;28;19910;-86
2023/08/16 13:07:57;;;;;;;;;;;23.80;70.80;;;;;;4978094;28;19922;-86
2023/08/16 13:10:24;;;;;;;;;;;23.50;72.40;;;;;;4979839;28;19917;-87
2023/08/16 13:12:49;;;;;;;;;;;23.60;73.10;;;;;;4980528;28;19910;-86
2023/08/16 13:15:15;;;;;;;;;;;23.70;72.40;;;;;;4979540;28;20012;-86
2023/08/16 13:17:40;;;;;;;;;;;23.80;71.90;;;;;;4994540;28;19914;-87
2023/08/16 13:20:06;;;;;;;;;;;23.90;71.50;;;;;;5002330;28;19945;-88
2023/08/16 13:22:32;;;;;;;;;;;23.70;71.90;;;;;;4986383;28;19910;-86
2023/08/16 13:24:58;;;;;;;;;;;23.70;72.30;;;;;;5005134;28;19914;-86
2023/08/16 13:27:23;;;;;;;;;;;23.80;70.70;;;;;;4990055;28;20311;-87
2023/08/16 13:29:49;;;;;;;;;;;23.90;71.20;;;;;;4985787;28;19949;-86
2023/08/16 13:32:14;;;;;;;;;;;24.00;71.10;;;;;;4988340;28;19914;-85
2023/08/16 13:34:40;;;;;;;;;;;23.90;71.40;;;;;;4996574;28;19945;-85
2023/08/16 13:37:05;;;;;;;;;;;23.80;71.90;;;;;;4984842;28;20029;-87
2023/08/16 13:39:31;;;;;;;;;;;23.90;71.70;;;;;;4984766;28;19946;-85
2023/08/16 13:41:57;;;;;;;;;;;24.10;69.90;;;;;;5001031;28;19967;-86
2023/08/16 13:44:23;;;;;;;;;;;24.30;70.20;;;;;;4984308;28;19921;-86
2023/08/16 13:46:48;;;;;;;;;;;24.20;70.80;;;;;;4982172;28;19946;-85
2023/08/16 13:49:14;;;;;;;;;;;24.00;70.10;;;;;;4985841;28;20100;-87
2023/08/16 13:51:39;;;;;;;;;;;23.90;69.90;;;;;;4985130;28;19910;-86
2023/08/16 13:54:06;;;;;;;;;;;23.90;71.30;;;;;;4982143;28;20041;-86
2023/08/16 13:56:32;;;;;;;;;;;23.80;71.20;;;;;;4977105;28;20354;-85
2023/08/16 13:58:57;;;;;;;;;;;23.70;70.70;;;;;;4977662;28;19949;-85
2023/08/16 14:01:22;;;;;;;;;;;23.80;70.80;;;;;;4977824;28;20447;-85
2023/08/16 14:03:48;;;;;;;;;;;23.70;71.20;;;;;;4977940;28;20372;-86
2023/08/16 14:06:13;;;;;;;;;;;23.70;71.70;;;;;;4994131;28;20376;-85
2023/08/16 14:08:42;;;;;;;;;;;23.80;71.30;;;;;;5005595;23;20396;-87
2023/08/16 14:11:07;;;;;;;;;;;23.80;71.90;;;;;;4989588;28;20376;-89